createdAt,value
2023-05-13T00:02:11.272Z,9.38
2023-05-13T00:04:38.483Z,9.52
2023-05-13T00:07:05.505Z,10.02
2023-05-13T00:09:32.062Z,9.42
2023-05-13T00:11:58.693Z,9.58
2023-05-13T00:14:25.516Z,9.57
2023-05-13T00:16:52.199Z,9.72
2023-05-13T00:19:18.784Z,9.99
2023-05-13T00:21:45.416Z,9.69
2023-05-13T00:24:12.566Z,9.71
2023-05-13T00:26:39.178Z,10.21
2023-05-13T00:29:05.798Z,10.04
2023-05-13T00:31:32.424Z,9.95
2023-05-13T00:33:59.096Z,9.98
2023-05-13T00:36:27.398Z,10.14
2023-05-13T00:38:53.997Z,10.28
2023-05-13T00:41:21.845Z,9.87
2023-05-13T00:43:48.686Z,10.25
2023-05-13T00:46:15.889Z,9.99
2023-05-13T00:48:43.007Z,9.89
2023-05-13T00:51:10.339Z,9.47
2023-05-13T00:53:38.423Z,9.12
2023-05-13T00:56:05.244Z,9.16
2023-05-13T00:58:31.867Z,9.45
2023-05-13T01:01:14.754Z,9.06
2023-05-13T01:03:58.178Z,8.92
2023-05-13T01:06:41.140Z,9.06
2023-05-13T01:09:21.397Z,9.74
2023-05-13T01:11:51.080Z,9.78
2023-05-13T01:14:33.563Z,10.00
2023-05-13T01:17:15.466Z,9.95
2023-05-13T01:19:46.710Z,10.09
2023-05-13T01:22:14.103Z,10.66
2023-05-13T01:24:40.820Z,10.57
2023-05-13T01:27:07.539Z,10.49
2023-05-13T01:29:34.564Z,10.73
2023-05-13T01:32:03.339Z,10.98
2023-05-13T01:34:32.137Z,11.14
2023-05-13T01:37:00.898Z,11.10
2023-05-13T01:39:29.176Z,11.02
2023-05-13T01:41:55.855Z,10.76
2023-05-13T01:44:22.444Z,10.96
2023-05-13T01:46:50.624Z,11.43
2023-05-13T01:49:17.505Z,11.23
2023-05-13T01:51:44.105Z,11.33
2023-05-13T01:54:10.755Z,11.37
2023-05-13T01:56:37.336Z,11.19
2023-05-13T01:59:03.943Z,11.47
2023-05-13T02:01:30.627Z,11.48
2023-05-13T02:03:59.966Z,11.74
2023-05-13T02:06:27.979Z,11.89
2023-05-13T02:08:54.819Z,11.78
2023-05-13T02:11:22.443Z,11.61
2023-05-13T02:13:49.053Z,11.71
2023-05-13T02:16:18.146Z,11.76
2023-05-13T02:18:44.903Z,11.79
2023-05-13T02:21:11.547Z,11.49
2023-05-13T02:23:38.214Z,11.91
2023-05-13T02:26:04.911Z,11.96
2023-05-13T02:28:31.758Z,12.00
2023-05-13T02:30:58.332Z,12.25
2023-05-13T02:33:24.977Z,12.45
2023-05-13T02:35:51.562Z,12.11
2023-05-13T02:38:18.151Z,13.15
2023-05-13T02:40:44.829Z,13.01
2023-05-13T02:43:11.419Z,12.84
2023-05-13T02:45:40.197Z,12.98
2023-05-13T02:48:06.928Z,12.61
2023-05-13T02:50:33.620Z,12.79
2023-05-13T02:53:00.368Z,13.19
2023-05-13T02:55:27.278Z,13.22
2023-05-13T02:57:53.915Z,13.56
2023-05-13T03:00:20.890Z,13.62
2023-05-13T03:02:48.565Z,13.69
2023-05-13T03:05:15.273Z,13.95
2023-05-13T03:07:41.945Z,13.76
2023-05-13T03:10:09.042Z,14.31
2023-05-13T03:12:36.136Z,14.62
2023-05-13T03:15:03.909Z,14.96
2023-05-13T03:17:32.021Z,14.84
2023-05-13T03:19:58.898Z,15.23
2023-05-13T03:22:25.561Z,15.60
2023-05-13T03:24:52.155Z,15.84
2023-05-13T03:27:18.945Z,15.65
2023-05-13T03:29:45.604Z,15.72
2023-05-13T03:32:12.200Z,15.75
2023-05-13T03:34:38.960Z,15.58
2023-05-13T03:37:05.623Z,15.88
2023-05-13T03:39:32.277Z,15.95
2023-05-13T03:41:59.147Z,15.92
2023-05-13T03:44:25.856Z,16.02
2023-05-13T03:46:52.552Z,15.77
2023-05-13T03:49:19.192Z,16.26
2023-05-13T03:51:45.804Z,15.99
2023-05-13T03:54:12.538Z,16.25
2023-05-13T03:56:39.124Z,16.35
2023-05-13T03:59:05.685Z,16.81
2023-05-13T04:01:32.262Z,16.90
2023-05-13T04:03:58.856Z,16.98
2023-05-13T04:06:25.594Z,16.93
2023-05-13T04:08:52.315Z,17.34
2023-05-13T04:11:18.937Z,17.47
2023-05-13T04:13:46.018Z,17.58
2023-05-13T04:16:12.679Z,17.70
2023-05-13T04:18:39.288Z,17.54
2023-05-13T04:21:10.278Z,17.94
2023-05-13T04:23:36.946Z,17.22
2023-05-13T04:26:03.508Z,17.48
2023-05-13T04:28:30.137Z,18.07
2023-05-13T04:30:56.808Z,18.14
2023-05-13T04:33:23.424Z,18.08
2023-05-13T04:35:49.990Z,18.66
2023-05-13T04:38:16.709Z,18.61
2023-05-13T04:40:44.277Z,19.14
2023-05-13T04:43:14.404Z,18.73
2023-05-13T04:45:41.260Z,18.45
2023-05-13T04:48:08.209Z,18.81
2023-05-13T04:50:34.886Z,18.67
2023-05-13T04:53:01.826Z,18.84
2023-05-13T04:55:28.489Z,18.86
2023-05-13T04:57:55.089Z,18.82
2023-05-13T05:00:21.820Z,18.86
2023-05-13T05:02:48.742Z,19.11
2023-05-13T05:05:17.618Z,18.83
2023-05-13T05:07:44.936Z,19.50
2023-05-13T05:10:11.554Z,18.80
2023-05-13T05:12:38.364Z,18.93
2023-05-13T05:15:06.181Z,18.94
2023-05-13T05:17:33.930Z,18.67
2023-05-13T05:20:00.827Z,18.93
2023-05-13T05:22:27.457Z,18.97
2023-05-13T05:24:54.058Z,18.89
2023-05-13T05:27:20.660Z,18.48
2023-05-13T05:29:47.236Z,18.74
2023-05-13T05:32:13.986Z,19.15
2023-05-13T05:34:40.975Z,19.02
2023-05-13T05:37:07.671Z,18.96
2023-05-13T05:39:35.239Z,18.75
2023-05-13T05:42:02.131Z,18.22
2023-05-13T05:44:28.717Z,18.93
2023-05-13T05:46:55.433Z,18.98
2023-05-13T05:49:22.040Z,18.66
2023-05-13T05:51:48.710Z,18.23
2023-05-13T05:54:15.443Z,18.97
2023-05-13T05:56:42.516Z,18.81
2023-05-13T05:59:09.175Z,18.50
2023-05-13T06:01:36.842Z,19.09
2023-05-13T06:04:04.464Z,18.38
2023-05-13T06:06:32.315Z,18.63
2023-05-13T06:08:59.039Z,18.90
2023-05-13T06:11:25.949Z,18.42
2023-05-13T06:13:53.914Z,18.22
2023-05-13T06:16:20.563Z,18.24
2023-05-13T06:18:47.192Z,18.38
2023-05-13T06:21:14.156Z,18.52
2023-05-13T06:23:40.976Z,18.65
2023-05-13T06:26:07.640Z,17.86
2023-05-13T06:28:34.261Z,17.98
2023-05-13T06:31:00.923Z,17.97
2023-05-13T06:33:27.606Z,18.12
2023-05-13T06:35:54.279Z,17.71
2023-05-13T06:38:21.030Z,17.75
2023-05-13T06:40:47.657Z,17.28
2023-05-13T06:43:18.142Z,17.38
2023-05-13T06:45:44.818Z,16.82
2023-05-13T06:48:14.242Z,16.84
2023-05-13T06:50:41.021Z,16.64
2023-05-13T06:53:08.833Z,16.11
2023-05-13T06:55:41.373Z,16.41
2023-05-13T06:58:08.993Z,16.21
2023-05-13T07:00:40.362Z,15.93
2023-05-13T07:03:07.580Z,16.10
2023-05-13T07:05:35.672Z,15.45
2023-05-13T07:08:06.763Z,15.51
2023-05-13T07:10:34.270Z,15.03
2023-05-13T07:13:02.061Z,14.97
2023-05-13T07:15:28.894Z,14.86
2023-05-13T07:17:55.611Z,14.60
2023-05-13T07:20:23.171Z,14.26
2023-05-13T07:22:50.127Z,14.28
2023-05-13T07:25:17.525Z,13.87
2023-05-13T07:27:44.836Z,13.24
2023-05-13T07:30:12.554Z,13.97
2023-05-13T07:32:40.105Z,13.60
2023-05-13T07:35:07.426Z,13.32
2023-05-13T07:37:34.040Z,12.69
2023-05-13T07:40:00.631Z,13.09
2023-05-13T07:42:28.264Z,12.93
2023-05-13T07:44:54.819Z,12.80
2023-05-13T07:47:21.517Z,12.69
2023-05-13T07:49:48.957Z,12.95
2023-05-13T07:52:15.653Z,12.58
2023-05-13T07:54:42.255Z,12.34
2023-05-13T07:57:08.843Z,11.83
2023-05-13T07:59:35.451Z,12.46
2023-05-13T08:02:02.334Z,11.83
2023-05-13T08:04:28.967Z,11.62
2023-05-13T08:06:56.269Z,11.63
2023-05-13T08:09:22.955Z,11.29
2023-05-13T08:11:49.649Z,11.30
2023-05-13T08:14:16.233Z,11.13
2023-05-13T08:16:42.993Z,11.13
2023-05-13T08:19:09.946Z,10.74
2023-05-13T08:21:36.566Z,11.26
2023-05-13T08:24:03.293Z,11.26
2023-05-13T08:26:29.884Z,10.99
2023-05-13T08:28:57.872Z,11.14
2023-05-13T08:31:25.288Z,10.70
2023-05-13T08:33:53.362Z,11.00
2023-05-13T08:36:22.820Z,10.26
2023-05-13T08:38:49.404Z,10.36
2023-05-13T08:41:16.419Z,10.93
2023-05-13T08:43:44.196Z,10.73
2023-05-13T08:46:12.459Z,10.75
2023-05-13T08:48:41.434Z,10.16
2023-05-13T08:51:11.774Z,10.23
2023-05-13T08:53:44.297Z,9.91
2023-05-13T08:56:10.958Z,9.84
2023-05-13T08:58:37.582Z,9.87
2023-05-13T09:01:06.136Z,9.67
2023-05-13T09:03:33.306Z,9.87
2023-05-13T09:06:03.472Z,9.72
2023-05-13T09:08:30.295Z,9.66
2023-05-13T09:10:57.303Z,9.86
2023-05-13T09:13:23.957Z,9.66
2023-05-13T09:15:51.144Z,9.33
2023-05-13T09:18:19.236Z,9.58
2023-05-13T09:20:46.390Z,10.01
2023-05-13T09:23:13.740Z,9.99
2023-05-13T09:25:40.549Z,9.61
2023-05-13T09:28:08.383Z,9.02
2023-05-13T09:30:43.353Z,9.33
2023-05-13T09:33:13.661Z,9.07
2023-05-13T09:35:48.782Z,8.86
2023-05-13T09:38:17.665Z,9.09
2023-05-13T09:41:10.383Z,8.66
2023-05-13T09:43:39.676Z,8.46
2023-05-13T09:46:08.939Z,8.53
2023-05-13T09:48:37.946Z,9.02
2023-05-13T09:51:05.605Z,8.85
2023-05-13T09:53:32.353Z,8.60
2023-05-13T09:56:00.338Z,8.90
2023-05-13T09:58:29.113Z,8.68
2023-05-13T10:00:56.781Z,8.77
2023-05-13T10:03:24.159Z,9.15
2023-05-13T10:05:51.741Z,8.66
2023-05-13T10:08:18.479Z,9.34
2023-05-13T10:10:48.049Z,9.08
2023-05-13T10:13:23.234Z,9.49
2023-05-13T10:15:51.444Z,8.92
2023-05-13T10:18:19.930Z,8.99
2023-05-13T10:20:47.696Z,8.53
2023-05-13T10:23:14.294Z,8.64
2023-05-13T10:25:42.525Z,8.41
2023-05-13T10:28:10.719Z,8.66
2023-05-13T10:30:38.766Z,8.40
2023-05-13T10:33:05.890Z,8.90
2023-05-13T10:35:38.604Z,8.81
2023-05-13T10:38:17.542Z,8.78
2023-05-13T10:40:56.120Z,9.28
2023-05-13T10:43:27.016Z,9.02
2023-05-13T10:46:07.999Z,8.38
2023-05-13T10:48:58.325Z,8.89
2023-05-13T10:51:26.236Z,9.00
2023-05-13T10:53:55.088Z,9.33
2023-05-13T10:56:24.266Z,7.89
2023-05-13T10:59:04.870Z,8.07
2023-05-13T11:01:44.616Z,7.82
2023-05-13T11:04:16.389Z,7.99
2023-05-13T11:06:47.874Z,8.25
2023-05-13T11:09:28.906Z,7.72
2023-05-13T11:11:58.494Z,7.75
2023-05-13T11:14:27.406Z,7.55
2023-05-13T11:17:04.443Z,7.30
2023-05-13T11:19:37.295Z,7.48
2023-05-13T11:22:12.789Z,7.06
2023-05-13T11:24:40.707Z,7.38
2023-05-13T11:27:15.574Z,7.11
2023-05-13T11:29:51.216Z,6.60
2023-05-13T11:32:55.918Z,6.71
2023-05-13T11:35:30.491Z,6.83
2023-05-13T11:38:00.451Z,6.27
2023-05-13T11:40:30.854Z,6.44
2023-05-13T11:42:58.946Z,6.26
2023-05-13T11:45:27.142Z,6.36
2023-05-13T11:47:54.608Z,6.28
2023-05-13T11:50:32.263Z,5.96
2023-05-13T11:53:00.586Z,6.24
2023-05-13T11:55:30.199Z,6.25
2023-05-13T11:57:57.553Z,6.39
2023-05-13T12:00:27.069Z,6.09
2023-05-13T12:02:54.735Z,6.21
2023-05-13T12:05:22.303Z,5.94
2023-05-13T12:07:49.724Z,5.99
2023-05-13T12:10:17.402Z,5.66
2023-05-13T12:12:45.739Z,5.50
2023-05-13T12:15:20.258Z,5.65
2023-05-13T12:17:49.353Z,5.75
2023-05-13T12:20:22.047Z,5.76
2023-05-13T12:22:48.588Z,5.46
2023-05-13T12:25:46.810Z,5.51
2023-05-13T12:28:20.770Z,5.38
2023-05-13T12:31:01.091Z,5.58
2023-05-13T12:33:40.620Z,5.36
2023-05-13T12:36:26.057Z,5.07
2023-05-13T12:38:59.605Z,5.16
2023-05-13T12:41:32.311Z,4.88
2023-05-13T12:44:01.997Z,4.93
2023-05-13T12:46:28.825Z,4.88
2023-05-13T12:48:57.223Z,5.02
2023-05-13T12:51:24.443Z,4.90
2023-05-13T12:53:54.076Z,4.70
2023-05-13T12:56:22.425Z,4.93
2023-05-13T12:58:50.677Z,4.67
2023-05-13T13:01:18.283Z,4.99
2023-05-13T13:03:45.966Z,4.74
2023-05-13T13:06:13.575Z,4.89
2023-05-13T13:08:40.394Z,4.75
2023-05-13T13:11:07.321Z,4.95
2023-05-13T13:13:34.336Z,5.19
2023-05-13T13:16:02.019Z,5.44
2023-05-13T13:18:28.753Z,4.93
2023-05-13T13:20:55.860Z,5.23
2023-05-13T13:23:22.711Z,5.12
2023-05-13T13:25:49.360Z,5.08
2023-05-13T13:28:16.066Z,5.35
2023-05-13T13:30:46.481Z,4.99
2023-05-13T13:33:15.038Z,5.26
2023-05-13T13:35:43.785Z,5.21
2023-05-13T13:38:10.842Z,4.76
2023-05-13T13:40:37.502Z,5.24
2023-05-13T13:43:05.505Z,4.64
2023-05-13T13:45:32.278Z,4.74
2023-05-13T13:47:59.372Z,4.89
2023-05-13T13:50:26.699Z,5.02
2023-05-13T13:52:53.364Z,4.90
2023-05-13T13:55:21.575Z,5.04
2023-05-13T13:57:48.405Z,5.09
2023-05-13T14:00:16.421Z,5.12
2023-05-13T14:02:43.933Z,5.03
2023-05-13T14:05:12.755Z,4.88
2023-05-13T14:07:40.164Z,4.60
2023-05-13T14:10:07.563Z,4.70
2023-05-13T14:12:35.715Z,4.69
2023-05-13T14:15:02.755Z,4.81
2023-05-13T14:17:29.445Z,4.88
2023-05-13T14:19:56.101Z,4.72
2023-05-13T14:22:23.969Z,4.92
2023-05-13T14:24:52.196Z,4.71
2023-05-13T14:27:19.794Z,4.83
2023-05-13T14:29:47.755Z,4.81
2023-05-13T14:32:15.205Z,4.85
2023-05-13T14:34:42.602Z,4.50
2023-05-13T14:37:09.370Z,4.74
2023-05-13T14:39:36.100Z,4.68
2023-05-13T14:42:03.785Z,4.64
2023-05-13T14:44:30.483Z,4.66
2023-05-13T14:46:57.293Z,4.82
2023-05-13T14:49:24.156Z,4.97
2023-05-13T14:51:50.804Z,4.49
2023-05-13T14:54:17.894Z,4.51
2023-05-13T14:56:45.078Z,4.64
2023-05-13T14:59:11.757Z,4.72
2023-05-13T15:01:38.764Z,4.86
2023-05-13T15:04:05.987Z,4.63
2023-05-13T15:06:33.204Z,4.61
2023-05-13T15:08:59.998Z,4.71
2023-05-13T15:11:30.420Z,4.64
2023-05-13T15:13:57.093Z,4.26
2023-05-13T15:16:23.797Z,4.44
2023-05-13T15:18:50.747Z,4.80
2023-05-13T15:21:17.985Z,4.93
2023-05-13T15:23:44.887Z,4.78
2023-05-13T15:26:11.646Z,5.11
2023-05-13T15:28:38.367Z,4.95
2023-05-13T15:31:05.747Z,4.90
2023-05-13T15:33:35.278Z,4.49
2023-05-13T15:36:02.086Z,4.45
2023-05-13T15:38:28.685Z,4.62
2023-05-13T15:40:55.304Z,4.45
2023-05-13T15:43:21.983Z,4.65
2023-05-13T15:45:50.038Z,4.45
2023-05-13T15:48:17.432Z,4.63
2023-05-13T15:50:44.398Z,4.73
2023-05-13T15:53:11.063Z,4.72
2023-05-13T15:55:39.364Z,4.43
2023-05-13T15:58:06.649Z,4.63
2023-05-13T16:00:33.395Z,4.69
2023-05-13T16:03:00.125Z,4.83
2023-05-13T16:05:26.863Z,4.94
2023-05-13T16:07:53.492Z,5.64
2023-05-13T16:10:20.217Z,6.37
2023-05-13T16:12:46.998Z,6.69
2023-05-13T16:15:13.615Z,7.23
2023-05-13T16:17:40.259Z,7.74
2023-05-13T16:20:08.938Z,7.68
2023-05-13T16:22:38.236Z,7.84
2023-05-13T16:25:10.425Z,7.21
2023-05-13T16:27:38.839Z,7.00
2023-05-13T16:30:07.354Z,7.27
2023-05-13T16:32:34.889Z,7.72
2023-05-13T16:35:02.517Z,7.87
2023-05-13T16:37:29.573Z,7.97
2023-05-13T16:39:56.238Z,7.58
2023-05-13T16:42:23.226Z,7.82
2023-05-13T16:44:49.892Z,7.54
2023-05-13T16:47:16.525Z,7.96
2023-05-13T16:49:43.226Z,7.71
2023-05-13T16:52:09.869Z,7.99
2023-05-13T16:54:36.603Z,7.67
2023-05-13T16:57:03.337Z,7.91
2023-05-13T16:59:29.982Z,8.27
2023-05-13T17:01:56.620Z,7.94
2023-05-13T17:04:23.195Z,7.70
2023-05-13T17:06:50.017Z,7.85
2023-05-13T17:09:16.727Z,8.07
2023-05-13T17:11:43.327Z,7.87
2023-05-13T17:14:10.147Z,7.62
2023-05-13T17:16:37.026Z,7.83
2023-05-13T17:19:03.769Z,7.49
2023-05-13T17:21:30.508Z,7.35
2023-05-13T17:23:57.058Z,7.81
2023-05-13T17:26:23.670Z,7.61
2023-05-13T17:28:50.251Z,7.75
2023-05-13T17:31:16.868Z,8.53
2023-05-13T17:33:43.802Z,8.03
2023-05-13T17:36:10.952Z,7.98
2023-05-13T17:38:38.020Z,8.68
2023-05-13T17:41:05.139Z,8.49
2023-05-13T17:43:31.841Z,8.95
2023-05-13T17:45:58.592Z,8.85
2023-05-13T17:48:26.707Z,9.04
2023-05-13T17:50:53.601Z,8.30
2023-05-13T17:53:21.107Z,8.43
2023-05-13T17:55:48.613Z,8.93
2023-05-13T17:58:16.076Z,8.84
2023-05-13T18:00:42.983Z,8.80
2023-05-13T18:03:09.650Z,8.72
2023-05-13T18:05:36.413Z,8.86
2023-05-13T18:08:03.127Z,8.46
2023-05-13T18:10:29.857Z,8.51
2023-05-13T18:12:56.522Z,8.64
2023-05-13T18:15:23.337Z,8.56
2023-05-13T18:17:50.805Z,8.53
2023-05-13T18:20:18.296Z,8.21
2023-05-13T18:22:45.033Z,8.12
2023-05-13T18:25:11.790Z,8.27
2023-05-13T18:27:38.592Z,8.42
2023-05-13T18:30:06.734Z,8.24
2023-05-13T18:32:33.395Z,8.55
2023-05-13T18:35:00.037Z,8.34
2023-05-13T18:37:26.600Z,8.49
2023-05-13T18:39:53.197Z,8.33
2023-05-13T18:42:19.799Z,8.25
2023-05-13T18:44:46.384Z,8.48
2023-05-13T18:47:12.967Z,8.48
2023-05-13T18:49:39.546Z,8.28
2023-05-13T18:52:06.492Z,8.23
2023-05-13T18:54:33.241Z,8.39
2023-05-13T18:57:00.218Z,8.38
2023-05-13T18:59:26.812Z,8.36
2023-05-13T19:01:53.561Z,8.25
2023-05-13T19:04:20.513Z,8.54
2023-05-13T19:06:47.307Z,8.24
2023-05-13T19:09:14.352Z,8.52
2023-05-13T19:11:41.012Z,8.55
2023-05-13T19:14:07.622Z,8.38
2023-05-13T19:16:34.545Z,8.32
2023-05-13T19:19:01.231Z,8.49
2023-05-13T19:21:27.925Z,8.51
2023-05-13T19:23:54.509Z,8.74
2023-05-13T19:26:21.475Z,8.68
2023-05-13T19:28:48.784Z,8.75
2023-05-13T19:31:15.496Z,8.86
2023-05-13T19:33:42.929Z,8.88
2023-05-13T19:36:11.304Z,9.32
2023-05-13T19:38:38.036Z,9.02
2023-05-13T19:41:04.663Z,9.24
2023-05-13T19:43:31.273Z,8.47
2023-05-13T19:45:57.944Z,8.95
2023-05-13T19:48:24.677Z,9.33
2023-05-13T19:50:53.445Z,9.45
2023-05-13T19:53:21.904Z,9.45
2023-05-13T19:55:48.476Z,9.46
2023-05-13T19:58:15.925Z,9.74
2023-05-13T20:00:43.971Z,9.53
2023-05-13T20:03:11.146Z,10.14
2023-05-13T20:05:39.890Z,10.16
2023-05-13T20:08:06.751Z,10.39
2023-05-13T20:10:35.241Z,10.27
2023-05-13T20:13:04.048Z,11.05
2023-05-13T20:15:31.567Z,10.95
2023-05-13T20:17:58.459Z,11.00
2023-05-13T20:20:25.370Z,11.08
2023-05-13T20:22:52.206Z,11.52
2023-05-13T20:25:18.862Z,11.19
2023-05-13T20:27:45.478Z,11.69
2023-05-13T20:30:12.731Z,11.71
2023-05-13T20:32:39.425Z,12.14
2023-05-13T20:35:07.534Z,11.74
2023-05-13T20:37:34.432Z,12.19
2023-05-13T20:40:01.063Z,12.65
2023-05-13T20:42:27.648Z,12.57
2023-05-13T20:44:54.235Z,13.06
2023-05-13T20:47:20.995Z,13.36
2023-05-13T20:49:47.612Z,13.13
2023-05-13T20:52:14.350Z,13.56
2023-05-13T20:54:41.011Z,13.79
2023-05-13T20:57:07.680Z,13.95
2023-05-13T20:59:34.550Z,13.86
2023-05-13T21:02:01.241Z,14.38
2023-05-13T21:04:28.249Z,14.35
2023-05-13T21:06:54.880Z,14.80
2023-05-13T21:09:21.494Z,14.96
2023-05-13T21:11:48.169Z,14.90
2023-05-13T21:14:14.869Z,14.90
2023-05-13T21:16:41.569Z,15.06
2023-05-13T21:19:08.309Z,15.37
2023-05-13T21:21:34.976Z,15.71
2023-05-13T21:24:01.626Z,15.51
2023-05-13T21:26:28.284Z,15.56
2023-05-13T21:28:54.932Z,15.73
2023-05-13T21:31:21.627Z,16.06
2023-05-13T21:33:49.086Z,16.33
2023-05-13T21:36:16.082Z,16.36
2023-05-13T21:38:42.711Z,16.52
2023-05-13T21:41:09.306Z,16.35
2023-05-13T21:43:36.020Z,16.98
2023-05-13T21:46:03.288Z,17.15
2023-05-13T21:48:29.931Z,17.74
2023-05-13T21:50:56.614Z,17.83
2023-05-13T21:53:23.567Z,18.15
2023-05-13T21:55:50.681Z,18.04
2023-05-13T21:58:17.297Z,18.12
2023-05-13T22:00:43.944Z,18.61
2023-05-13T22:03:10.734Z,18.20
2023-05-13T22:05:43.573Z,18.01
2023-05-13T22:08:11.202Z,18.00
2023-05-13T22:10:38.597Z,17.87
2023-05-13T22:13:06.125Z,18.04
2023-05-13T22:15:32.821Z,17.96
2023-05-13T22:17:59.512Z,17.95
2023-05-13T22:20:26.662Z,18.82
2023-05-13T22:22:53.340Z,18.30
2023-05-13T22:25:19.987Z,18.09
2023-05-13T22:27:48.495Z,18.26
2023-05-13T22:30:15.402Z,18.32
2023-05-13T22:32:42.243Z,18.32
2023-05-13T22:35:09.421Z,19.17
2023-05-13T22:37:36.027Z,18.81
2023-05-13T22:40:02.603Z,18.87
2023-05-13T22:42:29.291Z,18.81
2023-05-13T22:44:55.935Z,18.56
2023-05-13T22:47:22.557Z,19.02
2023-05-13T22:49:49.298Z,18.90
2023-05-13T22:52:15.912Z,19.07
2023-05-13T22:54:42.553Z,19.26
2023-05-13T22:57:09.137Z,18.99
2023-05-13T22:59:35.773Z,19.29
2023-05-13T23:02:02.599Z,19.22
2023-05-13T23:04:29.454Z,19.20
2023-05-13T23:06:56.089Z,20.40
2023-05-13T23:09:22.716Z,20.18
2023-05-13T23:11:49.450Z,20.56
2023-05-13T23:14:16.036Z,20.12
2023-05-13T23:16:42.747Z,20.08
2023-05-13T23:19:10.700Z,20.36
2023-05-13T23:21:37.393Z,20.44
2023-05-13T23:24:04.101Z,20.55
2023-05-13T23:26:31.540Z,21.35
2023-05-13T23:28:58.188Z,21.39
2023-05-13T23:31:24.853Z,21.15
2023-05-13T23:33:51.504Z,21.75
2023-05-13T23:36:18.216Z,22.06
2023-05-13T23:38:44.820Z,22.73
2023-05-13T23:41:11.406Z,22.17
2023-05-13T23:43:37.971Z,21.92
2023-05-13T23:46:04.693Z,22.18
2023-05-13T23:48:31.909Z,22.24
2023-05-13T23:50:58.696Z,22.38
2023-05-13T23:53:25.556Z,22.28
2023-05-13T23:55:52.172Z,22.45
2023-05-13T23:58:18.783Z,22.37
